Snow/Ice From: 17-12-2017 10:00 Until: 18-12-2017 06:00 warning for: Snow/Ice Level: Yellow info button

Although rather usual in this region, locally or potentially dangerous phenomena are expected. (such as local winds, summer thunderstorms, rising streams or high waves) Be aware and pay attention to the latest weather updates, especially if you carry out activities exposed to weather or close to a stream or shoreline. 


Meteo18 Weather Cam more information Meteo18 Weather Cam


Thunder radar more information blitzortung!


warning for Snow/Ice more information rain snow radar


Visit our other weather sites:

Template documentation
and downloads

And another site



Weather Underground History page Text

Daily Summary for August 1, 2017 Units:  English    Metric   Both
« Previous Day
Next Day »
Daily Weekly Monthly Yearly Custom
  High: Low: Average:
Temperature: 78.3 °F 60.6 °F 67.8 °F
Dew Point: 66.4 °F 58.6 °F 62.4 °F
Humidity: 97 % 62 % 84 %
Wind Speed: 14 mph 0 mph 2.5 mph
Wind Gust: 31 mph - -
Wind:- - SSW
Pressure: 30.1 in 29.9 in -
Precipitation: 0.92 in    
Historical Graphs
 
 
Tabular Data for August 1, 2017
Time Temperature Dew Point Pressure Wind Wind Speed Wind Gust Humidity Rainfall Rate (Hourly)
00:02 61.3 °F 58.6 °F 29.9 in NNW 3 mph 14 mph 91 % 0.34 in
00:12 62.1 °F 59.2 °F 29.9 in North 3 mph 12 mph 90 % 0.26 in
00:17 62.1 °F 59.4 °F 30 in NW 1 mph 12 mph 91 % 0.18 in
00:22 61.9 °F 59 °F 30 in North 2 mph 12 mph 90 % 0.18 in
00:32 62.1 °F 59.4 °F 30 in ENE 3 mph 9 mph 91 % 0.19 in
00:37 62.2 °F 59.5 °F 30 in Calm   6 mph 91 % 0.18 in
00:47 62.2 °F 59.5 °F 30 in North 7 mph 8 mph 91 % 0.1 in
00:52 62.1 °F 59.7 °F 30 in NNW 3 mph 8 mph 92 % 0.1 in
01:02 62.1 °F 59.7 °F 30 in Calm   11 mph 92 % 0.09 in
01:12 61.9 °F 59.9 °F 30 in NW 3 mph 8 mph 93 % 0.1 in
01:17 61.9 °F 59.9 °F 30 in NNW 6 mph 6 mph 93 % 0.09 in
01:22 61.9 °F 59.9 °F 29.9 in NNW 6 mph 6 mph 93 % 0.09 in
01:32 61.7 °F 59.7 °F 29.9 in NNE 4 mph 9 mph 93 % 0.09 in
01:42 61.9 °F 59.9 °F 30 in NW 4 mph 16 mph 93 % 0.11 in
01:47 61.9 °F 59.9 °F 30 in NW 2 mph 12 mph 93 % 0.06 in
01:52 61.9 °F 59.5 °F 30 in Calm   12 mph 92 % 0.06 in
01:57 61.9 °F 59.5 °F 30 in NE 3 mph 9 mph 92 % 0.04 in
02:02 61.9 °F 59.5 °F 30 in North 1 mph 9 mph 92 % 0.04 in
02:07 61.9 °F 59.9 °F 30 in NNW 3 mph 4 mph 93 % 0.03 in
02:12 61.9 °F 59.9 °F 30 in NW 2 mph 4 mph 93 % 0.03 in
02:17 61.9 °F 59.9 °F 30 in NNW 3 mph 6 mph 93 % 0.03 in
02:22 61.9 °F 59.9 °F 30 in Calm   6 mph 93 % 0.03 in
02:32 62.1 °F 60.1 °F 30 in NE 2 mph 6 mph 93 % 0.01 in
02:42 61.9 °F 59.9 °F 29.9 in ENE 3 mph 6 mph 93 % 0 in
02:52 61.9 °F 59.9 °F 29.9 in NNW 2 mph 4 mph 93 % 0.02 in
02:57 61.9 °F 59.9 °F 30 in Calm   6 mph 93 % 0.02 in
03:02 61.9 °F 60.1 °F 30 in Calm   6 mph 94 % 0.02 in
03:07 61.9 °F 60.1 °F 30 in Calm   4 mph 94 % 0.02 in
03:12 61.9 °F 60.1 °F 30 in Calm   4 mph 94 % 0.02 in
03:17 61.9 °F 60.1 °F 29.9 in Calm   4 mph 94 % 0.02 in
03:22 61.9 °F 60.1 °F 29.9 in NNE 1 mph 3 mph 94 % 0.02 in
03:32 61.9 °F 60.1 °F 29.9 in NNW 4 mph 5 mph 94 % 0.02 in
03:37 61.9 °F 60.1 °F 29.9 in WSW 2 mph 10 mph 94 % 0.02 in
03:42 61.9 °F 60.1 °F 30 in Calm   13 mph 94 % 0.02 in
03:47 61.9 °F 60.1 °F 29.9 in NNW 5 mph 13 mph 94 % 0.02 in
03:52 62.1 °F 60.3 °F 29.9 in Calm   7 mph 94 % 0.04 in
03:57 62.1 °F 60.3 °F 30 in WNW 2 mph 7 mph 94 % 0.04 in
04:02 62.1 °F 60.3 °F 30 in Calm   6 mph 94 % 0.05 in
04:12 61.9 °F 60.1 °F 30 in Calm   3 mph 94 % 0.05 in
04:17 61.9 °F 60.1 °F 30 in Calm   3 mph 94 % 0.05 in
04:22 61.9 °F 60.1 °F 30 in Calm   3 mph 94 % 0.04 in
04:27 61.9 °F 60.4 °F 29.9 in NNW 1 mph 3 mph 95 % 0.04 in
04:32 61.9 °F 60.4 °F 29.9 in Calm   3 mph 95 % 0.05 in
04:42 61.7 °F 60.3 °F 29.9 in Calm   6 mph 95 % 0.04 in
04:52 61.9 °F 60.4 °F 29.9 in NNW 1 mph 6 mph 95 % 0.04 in
04:57 61.9 °F 60.4 °F 29.9 in North 1 mph 4 mph 95 % 0.02 in
05:02 61.9 °F 60.4 °F 29.9 in North 4 mph 4 mph 95 % 0.02 in
05:12 61.9 °F 60.4 °F 29.9 in North 3 mph 6 mph 95 % 0.02 in
05:17 61.9 °F 60.4 °F 29.9 in NNW 1 mph 6 mph 95 % 0.02 in
05:22 61.9 °F 60.8 °F 30 in SW 5 mph 6 mph 96 % 0.02 in
05:27 61.9 °F 60.4 °F 30 in West 14 mph 14 mph 95 % 0.02 in
05:37 62.1 °F 61 °F 30 in South 1 mph 31 mph 96 % 0.45 in
05:42 62.1 °F 61 °F 30 in SW 5 mph 31 mph 96 % 0.45 in
05:47 61.5 °F 60.1 °F 30 in SSW 4 mph 10 mph 95 % 0.51 in
05:52 61.5 °F 60.4 °F 30.1 in SSW 7 mph 10 mph 96 % 0.51 in
06:02 61.2 °F 60.1 °F 30.1 in SE 3 mph 10 mph 96 % 0.54 in
06:07 61.2 °F 60.1 °F 30 in ENE 1 mph 10 mph 96 % 0.57 in
06:12 61.2 °F 60.1 °F 30 in NE 2 mph 10 mph 96 % 0.57 in
06:17 61.2 °F 60.1 °F 30 in NE 11 mph 11 mph 96 % 0.58 in
06:22 61.2 °F 60.1 °F 29.9 in NE 11 mph 11 mph 96 % 0.6 in
06:32 61 °F 59.9 °F 29.9 in North 9 mph 19 mph 96 % 0.5 in
06:37 61 °F 59.9 °F 29.9 in NNE 9 mph 19 mph 96 % 0.5 in
06:42 61 °F 59.9 °F 29.9 in NE 2 mph 23 mph 96 % 0.16 in
06:47 61 °F 59.9 °F 29.9 in NNE 6 mph 23 mph 96 % 0.16 in
06:52 60.8 °F 59.7 °F 29.9 in WSW 1 mph 15 mph 96 % 0.1 in
06:57 60.8 °F 59.7 °F 29.9 in North 5 mph 9 mph 96 % 0.09 in
07:02 60.8 °F 59.7 °F 29.9 in North 3 mph 9 mph 96 % 0.09 in
07:07 60.8 °F 59.7 °F 29.9 in South 4 mph 11 mph 96 % 0.06 in
07:12 61 °F 59.9 °F 29.9 in SW 2 mph 11 mph 96 % 0.06 in
07:17 60.8 °F 59.7 °F 29.9 in SSW 3 mph 10 mph 96 % 0.04 in
07:22 60.6 °F 59.5 °F 29.9 in South 4 mph 10 mph 96 % 0.04 in
07:27 60.6 °F 59.5 °F 29.9 in SSW 7 mph 8 mph 96 % 0.02 in
07:37 61 °F 60.1 °F 30 in West 7 mph 12 mph 97 % 0.01 in
07:42 61 °F 59.9 °F 30 in WSW 5 mph 12 mph 96 % 0.01 in
07:47 61.2 °F 60.1 °F 30 in West 2 mph 14 mph 96 % 0.01 in
07:52 61.2 °F 60.1 °F 30 in WNW 4 mph 14 mph 96 % 0.01 in
07:57 61.3 °F 60.3 °F 30 in West 3 mph 8 mph 96 % 0.01 in
08:02 61.5 °F 60.4 °F 30 in SW 4 mph 8 mph 96 % 0.01 in
08:07 61.9 °F 60.8 °F 30 in SW 9 mph 9 mph 96 % 0 in
08:12 62.1 °F 61 °F 30 in West 6 mph 8 mph 96 % 0 in
08:17 62.1 °F 61 °F 30 in WSW 9 mph 13 mph 96 % 0 in
08:22 62.1 °F 60.6 °F 30 in SW 9 mph 13 mph 95 % 0 in
08:27 62.2 °F 60.8 °F 30 in WSW 7 mph 15 mph 95 % 0 in
08:32 62.2 °F 60.8 °F 30 in West 3 mph 15 mph 95 % 0 in
08:37 62.2 °F 60.8 °F 30 in West 2 mph 12 mph 95 % 0 in
08:42 62.2 °F 60.8 °F 30 in West 11 mph 12 mph 95 % 0 in
08:47 62.4 °F 61 °F 30 in WSW 4 mph 12 mph 95 % 0 in
08:52 62.4 °F 61 °F 30 in WSW 13 mph 13 mph 95 % 0 in
09:02 62.4 °F 61 °F 30 in West 3 mph 14 mph 95 % 0 in
09:07 62.4 °F 61 °F 30 in Calm   14 mph 95 % 0.01 in
09:12 62.4 °F 61 °F 30 in Calm   14 mph 95 % 0.01 in
09:17 62.4 °F 61 °F 30 in ESE 1 mph 12 mph 95 % 0.01 in
09:22 62.4 °F 61 °F 30 in Calm   7 mph 95 % 0.03 in
09:32 62.2 °F 60.8 °F 30 in NE 5 mph 6 mph 95 % 0.05 in
09:37 62.2 °F 60.8 °F 30 in NE 8 mph 10 mph 95 % 0.06 in
09:42 62.4 °F 61.3 °F 30 in East 2 mph 10 mph 96 % 0.06 in
09:47 62.6 °F 61.5 °F 30 in Calm   12 mph 96 % 0.06 in
09:52 62.8 °F 61.7 °F 30 in SW 2 mph 12 mph 96 % 0.06 in
09:57 62.6 °F 61.5 °F 30 in WNW 1 mph 7 mph 96 % 0.06 in
10:02 62.6 °F 61.5 °F 30 in ENE 2 mph 7 mph 96 % 0.06 in
10:07 62.4 °F 61.3 °F 30 in NE 9 mph 9 mph 96 % 0.06 in
10:12 62.2 °F 61.2 °F 29.9 in ESE 4 mph 5 mph 96 % 0.06 in
10:17 62.4 °F 61.3 °F 30 in SE 1 mph 13 mph 96 % 0.04 in
10:22 62.8 °F 61.7 °F 30 in Calm   13 mph 96 % 0.04 in
10:27 63 °F 61.9 °F 30 in Calm   5 mph 96 % 0.02 in
10:32 63.3 °F 62.2 °F 30 in SW 2 mph 5 mph 96 % 0.02 in
10:37 63.1 °F 61.7 °F 30 in SW 3 mph 3 mph 95 % 0.02 in
10:42 63.3 °F 62.2 °F 30 in West 2 mph 2 mph 96 % 0.02 in
10:47 63.3 °F 61.9 °F 30 in WNW 3 mph 4 mph 95 % 0.02 in
10:57 63.9 °F 62.8 °F 30 in Calm   6 mph 96 % 0.01 in
11:02 63.7 °F 61.9 °F 30 in Calm   6 mph 94 % 0.01 in
11:07 63.9 °F 62.4 °F 30 in North 2 mph 3 mph 95 % 0 in
11:12 64.2 °F 62.4 °F 30 in WNW 5 mph 5 mph 94 % 0 in
11:17 64.2 °F 62.4 °F 30 in SW 5 mph 5 mph 94 % 0 in
11:22 64.4 °F 62.6 °F 30 in SW 3 mph 5 mph 94 % 0 in
11:27 64.8 °F 63 °F 30 in West 2 mph 6 mph 94 % 0 in
11:32 65.3 °F 63.1 °F 30 in WSW 2 mph 6 mph 93 % 0 in
11:37 65.7 °F 63 °F 30 in Calm   4 mph 91 % 0 in
11:42 66 °F 62.6 °F 30 in SW 3 mph 4 mph 89 % 0 in
11:47 66.4 °F 63.3 °F 30 in West 3 mph 5 mph 90 % 0 in
11:52 66.4 °F 62.8 °F 30 in West 2 mph 5 mph 88 % 0 in
11:57 66.6 °F 63 °F 30 in WSW 2 mph 4 mph 88 % 0 in
12:02 67.5 °F 64 °F 30 in South 1 mph 4 mph 89 % 0 in
12:07 67.8 °F 63.5 °F 30 in West 2 mph 4 mph 86 % 0 in
12:17 68.4 °F 63.7 °F 30 in South 3 mph 5 mph 85 % 0 in
12:22 68.4 °F 63.3 °F 30 in Calm   5 mph 84 % 0 in
12:27 68.4 °F 63 °F 30 in WSW 5 mph 7 mph 83 % 0 in
12:32 68.5 °F 63.1 °F 30 in West 3 mph 7 mph 83 % 0 in
12:37 69.1 °F 63.7 °F 30 in SSE 1 mph 7 mph 83 % 0 in
12:42 70 °F 64.9 °F 30 in Calm   7 mph 84 % 0 in
12:47 70.2 °F 64.4 °F 30 in SW 1 mph 6 mph 82 % 0 in
12:52 70.7 °F 65.3 °F 30 in SW 4 mph 4 mph 83 % 0 in
12:57 70.9 °F 64.4 °F 30 in SSW 2 mph 6 mph 80 % 0 in
13:02 71.1 °F 64.6 °F 30 in West 3 mph 7 mph 80 % 0 in
13:12 72.1 °F 66 °F 30 in WSW 5 mph 7 mph 81 % 0 in
13:17 72.7 °F 65.8 °F 30 in WNW 4 mph 6 mph 79 % 0 in
13:22 72.9 °F 65.7 °F 30 in West 1 mph 7 mph 78 % 0 in
13:27 73 °F 64.6 °F 30 in Calm   7 mph 75 % 0 in
13:32 73.2 °F 64.8 °F 30 in SSE 2 mph 7 mph 75 % 0 in
13:37 73.8 °F 64.6 °F 30 in SW 4 mph 6 mph 73 % 0 in
13:42 73.6 °F 65.1 °F 30 in WSW 4 mph 7 mph 75 % 0 in
13:47 73.8 °F 64.6 °F 30 in South 2 mph 7 mph 73 % 0 in
13:52 73.6 °F 65.5 °F 30 in SSW 2 mph 7 mph 76 % 0 in
13:57 73.6 °F 64.4 °F 30 in SSW 5 mph 7 mph 73 % 0 in
14:02 73.8 °F 64.9 °F 30 in SW 4 mph 7 mph 74 % 0 in
14:12 73.8 °F 64.6 °F 30 in West 3 mph 7 mph 73 % 0 in
14:17 74.1 °F 65.3 °F 30 in SW 4 mph 7 mph 74 % 0 in
14:22 74.5 °F 65.3 °F 30 in SSW 7 mph 7 mph 73 % 0 in
14:32 74.5 °F 64.4 °F 30 in SE 2 mph 7 mph 71 % 0 in
14:37 74.8 °F 64.8 °F 30 in SW 4 mph 7 mph 71 % 0 in
14:42 75 °F 65.3 °F 30 in South 4 mph 6 mph 72 % 0 in
14:47 75.4 °F 65.3 °F 30 in SSW 6 mph 6 mph 71 % 0 in
14:52 74.8 °F 64.4 °F 30 in SSW 1 mph 9 mph 70 % 0 in
14:57 74.7 °F 64.6 °F 30 in SW 3 mph 9 mph 71 % 0 in
15:02 74.7 °F 65.1 °F 30 in South 1 mph 9 mph 72 % 0 in
15:07 75.2 °F 65.5 °F 30 in South 2 mph 6 mph 72 % 0 in
15:12 75 °F 64.6 °F 30 in SSW 5 mph 5 mph 70 % 0 in
15:17 75 °F 64.6 °F 30 in Calm   5 mph 70 % 0 in
15:22 75.6 °F 64.8 °F 30 in SSW 3 mph 5 mph 69 % 0 in
15:27 75.9 °F 64.9 °F 30 in South 3 mph 5 mph 69 % 0 in
15:32 76.3 °F 64.9 °F 30 in SW 2 mph 5 mph 68 % 0 in
15:37 76.3 °F 64.9 °F 30 in South 2 mph 6 mph 68 % 0 in
15:42 75.9 °F 65.5 °F 30 in WNW 2 mph 8 mph 70 % 0 in
15:47 75.7 °F 65.7 °F 30 in WSW 5 mph 8 mph 71 % 0 in
15:52 75.7 °F 65.3 °F 30 in SW 11 mph 11 mph 70 % 0 in
15:57 75.7 °F 65.3 °F 30 in WSW 4 mph 11 mph 70 % 0 in
16:02 75.7 °F 65.3 °F 30 in SW 6 mph 11 mph 70 % 0 in
16:12 75.9 °F 65.5 °F 30 in WNW 3 mph 8 mph 70 % 0 in
16:17 76.1 °F 65.1 °F 30 in WNW 5 mph 7 mph 69 % 0 in
16:22 76.1 °F 65.1 °F 30 in WNW 5 mph 7 mph 69 % 0 in
16:32 76.3 °F 64.9 °F 30 in West 5 mph 9 mph 68 % 0 in
16:37 76.6 °F 65.3 °F 30 in WSW 3 mph 10 mph 68 % 0 in
16:42 76.6 °F 65.3 °F 30 in WNW 4 mph 10 mph 68 % 0 in
16:47 76.8 °F 65.5 °F 30 in West 1 mph 10 mph 68 % 0 in
16:52 76.6 °F 65.3 °F 30 in Calm   8 mph 68 % 0 in
16:57 77.4 °F 66 °F 30 in WNW 5 mph 8 mph 68 % 0 in
17:02 77.4 °F 65.5 °F 30 in SSW 4 mph 7 mph 67 % 0 in
17:12 76.8 °F 64.9 °F 30 in West 5 mph 7 mph 67 % 0 in
17:22 76.1 °F 65.1 °F 30 in WNW 2 mph 8 mph 69 % 0 in
17:32 75.9 °F 64.9 °F 30 in West 4 mph 5 mph 69 % 0 in
17:37 76.1 °F 65.1 °F 30 in WNW 2 mph 5 mph 69 % 0 in
17:42 76.1 °F 65.7 °F 30 in WSW 1 mph 5 mph 70 % 0 in
17:52 76.5 °F 66 °F 30 in SSW 2 mph 3 mph 70 % 0 in
17:57 76.3 °F 65.3 °F 30 in WNW 1 mph 3 mph 69 % 0 in
18:02 76.3 °F 65.8 °F 30 in Calm   3 mph 70 % 0 in
18:12 77.4 °F 66.4 °F 30 in NE 2 mph 2 mph 69 % 0 in
18:17 77.5 °F 66.2 °F 30 in WSW 1 mph 2 mph 68 % 0 in
18:22 78.3 °F 66.4 °F 30 in WSW 1 mph 3 mph 67 % 0 in
18:27 78.3 °F 66.4 °F 30 in Calm   2 mph 67 % 0 in
18:32 77.7 °F 65.8 °F 30 in NE 4 mph 4 mph 67 % 0 in
18:37 76.8 °F 65.8 °F 30 in NNE 1 mph 5 mph 69 % 0 in
18:42 76.6 °F 65.7 °F 30 in NE 2 mph 5 mph 69 % 0 in
18:47 76.6 °F 65.7 °F 30 in Calm   5 mph 69 % 0 in
18:52 77.2 °F 66.2 °F 30 in Calm   3 mph 69 % 0 in
18:57 77.9 °F 66 °F 30 in NNE 2 mph 3 mph 67 % 0 in
19:02 77.5 °F 65.7 °F 30 in North 2 mph 4 mph 67 % 0 in
19:07 77.2 °F 65.3 °F 30 in WNW 1 mph 4 mph 67 % 0 in
19:12 76.6 °F 65.3 °F 30.1 in West 2 mph 6 mph 68 % 0 in
19:22 76.3 °F 64.9 °F 30.1 in WNW 1 mph 6 mph 68 % 0 in
19:32 76.3 °F 63.7 °F 30.1 in WNW 3 mph 5 mph 65 % 0 in
19:42 76.3 °F 64.6 °F 30.1 in NNE 1 mph 5 mph 67 % 0 in
19:47 76.5 °F 64.2 °F 30.1 in WNW 1 mph 5 mph 66 % 0 in
19:52 76.8 °F 63.7 °F 30.1 in Calm   5 mph 64 % 0 in
19:57 77.2 °F 63.7 °F 30.1 in Calm   5 mph 63 % 0 in
20:02 77.4 °F 63.9 °F 30.1 in NW 1 mph 4 mph 63 % 0 in
20:07 77.4 °F 63.9 °F 30.1 in North 1 mph 3 mph 63 % 0 in
20:17 76.8 °F 63.3 °F 30.1 in NNE 1 mph 4 mph 63 % 0 in
20:22 77.2 °F 64 °F 30.1 in Calm   4 mph 64 % 0 in
20:27 77.2 °F 63.7 °F 30.1 in Calm   3 mph 63 % 0 in
20:32 77.2 °F 63.1 °F 30.1 in NW 1 mph 2 mph 62 % 0 in
20:37 77.2 °F 63.7 °F 30.1 in Calm   2 mph 63 % 0 in
20:47 76.8 °F 63.7 °F 30.1 in Calm   2 mph 64 % 0 in
20:52 76.5 °F 63.9 °F 30.1 in Calm     65 % 0 in
21:02 74.8 °F 64.4 °F 30.1 in Calm   1 mph 70 % 0 in
21:12 72.9 °F 64.4 °F 30.1 in NW 1 mph 1 mph 75 % 0 in
21:17 72.1 °F 62.6 °F 30.1 in Calm   1 mph 72 % 0 in
21:22 72.1 °F 63 °F 30.1 in Calm   1 mph 73 % 0 in
21:27 71.6 °F 63 °F 30.1 in NNW 2 mph 2 mph 74 % 0 in
21:32 71.4 °F 63.5 °F 30.1 in NNW 1 mph 2 mph 76 % 0 in
21:37 71.2 °F 63.7 °F 30.1 in Calm   2 mph 77 % 0 in
21:42 70.2 °F 62.6 °F 30.1 in Calm   2 mph 77 % 0 in
21:47 69.6 °F 63.1 °F 30.1 in Calm   1 mph 80 % 0 in
21:52 68.9 °F 62.4 °F 30.1 in Calm     80 % 0 in
21:57 69.1 °F 62.6 °F 30.1 in Calm     80 % 0 in
22:07 68.9 °F 62.8 °F 30.1 in Calm     81 % 0 in
22:12 68.4 °F 63 °F 30.1 in Calm     83 % 0 in
22:17 67.8 °F 62.8 °F 30.1 in Calm     84 % 0 in
22:22 67.5 °F 62.4 °F 30.1 in Calm     84 % 0 in
22:32 67.3 °F 62.6 °F 30.1 in Calm     85 % 0 in
22:37 67.3 °F 62.6 °F 30.1 in Calm     85 % 0 in
22:42 67.3 °F 63 °F 30.1 in Calm     86 % 0 in
22:47 66.9 °F 62.6 °F 30.1 in Calm     86 % 0 in
22:52 66.6 °F 62.2 °F 30.1 in Calm     86 % 0 in
22:57 66.2 °F 62.2 °F 30.1 in Calm     87 % 0 in
23:02 66 °F 62.4 °F 30.1 in Calm     88 % 0 in
23:12 65.5 °F 62.2 °F 30.1 in Calm     89 % 0 in
23:17 65.3 °F 62.1 °F 30.1 in Calm     89 % 0 in
23:22 64.9 °F 61.9 °F 30.1 in Calm     90 % 0 in
23:32 64.9 °F 61.9 °F 30.1 in Calm     90 % 0 in
23:37 65.1 °F 62.1 °F 30.1 in Calm     90 % 0 in
23:42 65.3 °F 62.2 °F 30.1 in Calm     90 % 0 in
23:47 64.9 °F 61.7 °F 30.1 in Calm     89 % 0 in
23:52 64.6 °F 61.5 °F 30.1 in WNW 2 mph   90 % 0 in
Meteo18
Compliments of Weather Underground - 4 mb

Script developed by  Jim McMurry - jmcmurry@mwt.net Adapted for the template by  Wim van der Kuil - Leuven-Template.eu

You find our weather info also at:

European Weather Network

Weather Underground

Equipment we use:

Weather-station
Davis Vue

Weather-program
Meteohub

Weather-server
Raspberry PI 2 B+

Provider
1 and 1

Davis Vue

Meteohub

Raspberry PI 2 B+

1 and 1